Time;durP1;ratioP1;P1;durP2;ratioP2;P2;SDS_P1;SDS_P2;PMS_P1;PMS_P2;Temp;Humidity;BMP_temperature;BMP_pressure;BME280_temperature;BME280_humidity;BME280_pressure;Samples;Min_cycle;Max_cycle;Signal;HPM_P1;HPM_P2
2022/04/21 00:00:00;;;;;;;5.75;3.58;;;;;;;9.59;65.01;100565.22;675973;29;1163;-78
2022/04/21 00:00:21;;;;;;;5.57;3.50;;;;;;;9.57;65.27;100552.19;677614;29;1504;-78
2022/04/21 00:00:43;;;;;;;6.65;3.50;;;;;;;9.52;65.68;100551.31;679939;29;1589;-78
2022/04/21 00:01:07;;;;;;;5.65;3.30;;;;;;;9.48;65.55;100550.44;679947;29;4311;-78
2022/04/21 00:01:27;;;;;;;5.10;3.20;;;;;;;9.48;66.51;100580.91;679230;29;1200;-79
2022/04/21 00:01:48;;;;;;;5.18;3.42;;;;;;;9.46;65.94;100565.25;679925;29;1504;-79
2022/04/21 00:02:08;;;;;;;4.88;3.42;;;;;;;9.42;66.67;100563.50;684660;28;1565;-78
2022/04/21 00:02:29;;;;;;;6.13;3.60;;;;;;;9.38;66.50;100556.56;682581;29;1209;-79
2022/04/21 00:02:52;;;;;;;5.40;3.20;;;;;;;9.43;66.50;100580.91;679505;29;1317;-78
2022/04/21 00:03:13;;;;;;;5.23;3.30;;;;;;;9.47;66.56;100556.56;680977;29;1737;-79
2022/04/21 00:03:34;;;;;;;5.07;3.30;;;;;;;9.43;65.68;100556.53;675149;29;1309;-78
2022/04/21 00:03:56;;;;;;;5.45;3.40;;;;;;;9.42;65.80;100562.66;676112;29;1202;-79
2022/04/21 00:04:17;;;;;;;4.85;3.22;;;;;;;9.43;66.53;100565.25;674387;29;4899;-78
2022/04/21 00:04:37;;;;;;;5.17;3.07;;;;;;;9.46;66.03;100583.50;679117;29;1412;-79
2022/04/21 00:05:01;;;;;;;5.28;3.50;;;;;;;9.38;66.00;100557.41;678653;29;1193;-78
2022/04/21 00:05:22;;;;;;;4.95;3.20;;;;;;;9.44;66.02;100555.69;676718;29;1200;-78
2022/04/21 00:05:45;;;;;;;4.87;3.47;;;;;;;9.48;66.35;100554.81;673447;29;1104;-77
2022/04/21 00:06:06;;;;;;;5.55;3.35;;;;;;;9.56;65.90;100576.53;675630;29;1336;-79
2022/04/21 00:06:29;;;;;;;5.07;3.10;;;;;;;9.54;66.02;100586.97;676558;29;1293;-79
2022/04/21 00:06:50;;;;;;;4.93;3.13;;;;;;;9.50;66.50;100594.81;677698;29;1188;-79
2022/04/21 00:07:10;;;;;;;5.70;3.33;;;;;;;9.50;66.03;100566.97;674425;29;4345;-78
2022/04/21 00:07:30;;;;;;;6.20;3.40;;;;;;;9.47;65.88;100560.88;674781;29;1304;-78
2022/04/21 00:07:51;;;;;;;5.10;3.10;;;;;;;9.54;66.23;100558.28;680254;29;1906;-78
2022/04/21 00:08:17;;;;;;;5.47;3.30;;;;;;;9.46;65.45;100573.06;682301;29;1394;-78
2022/04/21 00:08:37;;;;;;;5.53;3.28;;;;;;;9.40;66.73;100561.78;682307;28;1425;-80
2022/04/21 00:08:58;;;;;;;4.93;3.37;;;;;;;9.35;65.61;100577.44;677984;29;1305;-78
2022/04/21 00:09:24;;;;;;;5.43;3.40;;;;;;;9.39;65.63;100545.25;678564;29;1291;-78
2022/04/21 00:09:45;;;;;;;5.10;3.30;;;;;;;9.50;64.05;100556.53;678698;29;1266;-78
2022/04/21 00:10:07;;;;;;;5.50;3.55;;;;;;;9.60;64.01;100553.91;676631;29;4321;-78
2022/04/21 00:10:28;;;;;;;5.18;3.25;;;;;;;9.59;63.28;100567.84;680428;29;1189;-78
2022/04/21 00:10:48;;;;;;;5.15;3.40;;;;;;;9.56;63.97;100565.25;681107;29;1615;-78
2022/04/21 00:11:08;;;;;;;5.07;3.50;;;;;;;9.53;64.27;100545.22;681254;29;1256;-78
2022/04/21 00:11:29;;;;;;;6.33;3.50;;;;;;;9.58;64.09;100561.75;682775;29;1107;-78
2022/04/21 00:11:53;;;;;;;5.30;3.28;;;;;;;9.59;64.19;100568.69;679638;29;2089;-78
2022/04/21 00:12:14;;;;;;;6.60;3.40;;;;;;;9.53;64.26;100551.31;677074;29;1594;-78
2022/04/21 00:12:35;;;;;;;6.75;3.60;;;;;;;9.52;64.40;100564.38;676982;29;1150;-78
2022/04/21 00:12:56;;;;;;;5.85;3.50;;;;;;;9.52;64.10;100566.97;674073;29;4342;-78
2022/04/21 00:13:16;;;;;;;5.30;3.33;;;;;;;9.52;63.93;100549.56;676810;29;1262;-78
2022/04/21 00:13:37;;;;;;;5.10;3.27;;;;;;;9.54;64.18;100571.31;677145;29;1064;-78
2022/04/21 00:13:57;;;;;;;6.10;3.40;;;;;;;9.53;64.02;100559.13;676622;29;1249;-78
2022/04/21 00:14:17;;;;;;;5.63;3.40;;;;;;;9.50;64.32;100556.53;675577;29;1265;-78
2022/04/21 00:14:41;;;;;;;5.93;3.33;;;;;;;9.49;64.35;100553.94;675316;29;1469;-78
2022/04/21 00:15:05;;;;;;;5.80;3.70;;;;;;;9.50;64.70;100561.75;679655;29;1346;-78
2022/04/21 00:15:26;;;;;;;5.30;3.50;;;;;;;9.50;64.95;100553.94;676195;29;1251;-78
2022/04/21 00:15:47;;;;;;;5.30;3.60;;;;;;;9.47;64.63;100551.34;675799;29;1609;-78
2022/04/21 00:16:07;;;;;;;5.90;3.53;;;;;;;9.45;65.20;100555.66;675152;29;4474;-78
2022/04/21 00:16:27;;;;;;;7.10;3.50;;;;;;;9.44;65.76;100558.28;680744;29;3634;-78
2022/04/21 00:16:48;;;;;;;6.45;3.50;;;;;;;9.44;66.08;100556.56;683922;28;1278;-78
2022/04/21 00:17:13;;;;;;;5.63;3.50;;;;;;;9.44;66.20;100561.78;682941;28;1189;-78
2022/04/21 00:17:34;;;;;;;5.50;3.30;;;;;;;9.46;65.29;100562.63;677766;29;1596;-79
2022/04/21 00:17:54;;;;;;;6.30;3.50;;;;;;;9.43;65.50;100557.44;677347;29;1242;-78
2022/04/21 00:18:14;;;;;;;5.70;3.28;;;;;;;9.41;67.07;100558.31;678576;29;1211;-78
2022/04/21 00:18:35;;;;;;;5.37;3.50;;;;;;;9.38;65.10;100561.78;678886;29;1118;-78
2022/04/21 00:18:55;;;;;;;5.43;3.50;;;;;;;9.38;64.96;100557.41;678541;29;4367;-78
2022/04/21 00:19:16;;;;;;;6.27;3.37;;;;;;;9.40;65.25;100553.94;674704;29;1278;-78
2022/04/21 00:19:37;;;;;;;5.88;3.30;;;;;;;9.41;65.46;100560.91;677669;29;1292;-79
2022/04/21 00:19:59;;;;;;;4.93;3.22;;;;;;;9.45;63.48;100552.22;675418;29;1383;-78
2022/04/21 00:20:19;;;;;;;5.40;3.47;;;;;;;9.46;64.53;100549.59;677767;29;1233;-78
2022/04/21 00:20:40;;;;;;;5.90;3.43;;;;;;;9.50;64.29;100553.94;680166;29;1206;-78
2022/04/21 00:21:01;;;;;;;6.43;3.50;;;;;;;9.49;64.49;100567.84;680119;29;1282;-78
2022/04/21 00:23:25;;;;;;;7.18;3.78;;;;;;;9.51;63.88;100563.50;680372;29;1216;-78
2022/04/21 00:23:26;;;;;;;5.85;3.55;;;;;;;9.47;64.52;100540.00;685803;28;990;-78
2022/04/21 00:23:53;;;;;;;6.40;3.65;;;;;;;9.47;64.75;100548.72;684760;28;929;-78
2022/04/21 00:24:14;;;;;;;5.07;3.40;;;;;;;9.49;64.59;100546.09;682732;28;1788;-79
2022/04/21 00:24:35;;;;;;;4.97;3.33;;;;;;;9.46;65.44;100553.94;680876;28;1628;-78
2022/04/21 00:24:55;;;;;;;5.03;3.10;;;;;;;9.45;64.74;100547.84;678952;29;4401;-78
2022/04/21 00:25:16;;;;;;;6.07;3.50;;;;;;;9.47;64.60;100546.13;679559;29;1337;-78
2022/04/21 00:25:37;;;;;;;5.72;3.30;;;;;;;9.47;63.95;100547.84;679620;29;1173;-78
2022/04/21 00:26:00;;;;;;;5.28;3.40;;;;;;;9.45;64.12;100542.63;679751;29;1483;-78
2022/04/21 00:26:21;;;;;;;5.13;3.60;;;;;;;9.45;64.75;100552.22;681036;29;1246;-78
2022/04/21 00:26:41;;;;;;;5.73;3.50;;;;;;;9.42;65.05;100547.84;680041;29;1282;-78
2022/04/21 00:27:02;;;;;;;5.37;3.50;;;;;;;9.40;64.84;100548.72;678168;29;1373;-78
2022/04/21 00:27:22;;;;;;;7.25;3.50;;;;;;;9.37;64.71;100544.38;679667;29;1378;-78
2022/04/21 00:27:45;;;;;;;6.45;3.40;;;;;;;9.37;64.39;100549.59;679484;29;1960;-80
2022/04/21 00:28:06;;;;;;;5.57;3.25;;;;;;;9.38;64.92;100546.13;676477;29;4468;-78
2022/04/21 00:28:30;;;;;;;5.38;3.50;;;;;;;9.32;65.54;100540.94;676135;29;1514;-79
2022/04/21 00:28:50;;;;;;;6.30;3.38;;;;;;;9.32;65.07;100541.78;674436;29;1536;-79
2022/04/21 00:29:10;;;;;;;5.43;3.33;;;;;;;9.31;65.04;100547.00;674899;29;1384;-78
2022/04/21 00:29:31;;;;;;;6.00;3.30;;;;;;;9.30;65.79;100546.13;674986;29;1377;-79
2022/04/21 00:29:51;;;;;;;5.65;3.45;;;;;;;9.30;64.86;100553.09;676843;29;1548;-78
2022/04/21 00:30:15;;;;;;;4.77;3.20;;;;;;;9.31;65.48;100553.09;676261;29;1623;-78
2022/04/21 00:30:36;;;;;;;5.25;3.42;;;;;;;9.29;65.25;100548.75;680855;28;1415;-78
2022/04/21 00:30:57;;;;;;;5.43;3.40;;;;;;;9.26;66.47;100543.53;681237;28;4381;-79
2022/04/21 00:31:18;;;;;;;4.93;3.20;;;;;;;9.26;65.76;100553.97;681903;28;1173;-78
2022/04/21 00:31:39;;;;;;;4.95;3.30;;;;;;;9.24;65.27;100547.91;680018;29;1339;-78
2022/04/21 00:31:59;;;;;;;6.05;3.40;;;;;;;9.23;65.12;100546.16;682524;28;1482;-78
2022/04/21 00:32:20;;;;;;;6.60;3.47;;;;;;;9.22;65.12;100568.78;680273;28;1123;-78
2022/04/21 00:32:41;;;;;;;5.88;3.58;;;;;;;9.19;65.09;100551.38;680969;28;1569;-78
2022/04/21 00:33:02;;;;;;;6.32;3.45;;;;;;;9.15;66.78;100554.84;679376;29;1430;-79
2022/04/21 00:33:23;;;;;;;5.60;3.53;;;;;;;9.14;65.59;100544.44;679889;29;1453;-78
2022/04/21 00:33:46;;;;;;;4.93;3.43;;;;;;;9.12;65.50;100553.97;679729;29;1452;-78
2022/04/21 00:34:09;;;;;;;5.15;3.33;;;;;;;9.12;66.89;100570.47;678205;29;4345;-78
2022/04/21 00:34:33;;;;;;;5.40;3.50;;;;;;;9.10;66.11;100551.38;679692;29;1278;-78
2022/04/21 00:34:56;;;;;;;5.57;3.70;;;;;;;9.10;65.71;100555.72;677459;29;1367;-78
2022/04/21 00:35:18;;;;;;;5.32;3.80;;;;;;;9.06;65.47;100567.88;679081;29;1531;-79
2022/04/21 00:35:39;;;;;;;6.00;3.65;;;;;;;9.06;66.41;100543.56;677062;29;1492;-78
2022/04/21 00:36:02;;;;;;;5.72;3.60;;;;;;;9.07;65.87;100585.28;677280;29;1453;-78
2022/04/21 00:36:23;;;;;;;4.93;3.45;;;;;;;9.06;66.07;100549.63;676772;29;1183;-80
2022/04/21 00:36:43;;;;;;;5.45;3.42;;;;;;;9.06;66.06;100546.16;676387;29;1280;-78
2022/04/21 00:37:04;;;;;;;5.80;3.40;;;;;;;9.02;66.65;100561.78;680461;28;4283;-78
2022/04/21 00:37:24;;;;;;;5.18;3.40;;;;;;;9.05;66.21;100545.28;681009;29;1542;-78
2022/04/21 00:37:47;;;;;;;5.00;3.40;;;;;;;9.04;65.44;100546.16;677349;29;1171;-78
2022/04/21 00:38:13;;;;;;;5.30;3.50;;;;;;;9.01;66.94;100556.59;674259;29;1576;-79
2022/04/21 00:38:33;;;;;;;5.63;3.63;;;;;;;8.95;67.23;100565.28;680221;29;1397;-78
2022/04/21 00:38:57;;;;;;;5.55;3.67;;;;;;;8.96;66.82;100553.97;679092;29;4600;-79
2022/04/21 00:39:18;;;;;;;5.28;3.45;;;;;;;8.96;67.84;100546.16;674181;29;1167;-78
2022/04/21 00:39:38;;;;;;;5.50;3.57;;;;;;;8.93;67.69;100542.69;682057;28;1198;-79
2022/04/21 00:39:59;;;;;;;4.50;3.30;;;;;;;8.89;66.70;100541.81;676809;29;4396;-78
2022/04/21 00:40:22;;;;;;;5.47;3.20;;;;;;;8.90;68.06;100553.09;677487;29;1246;-78
2022/04/21 00:40:42;;;;;;;6.30;3.20;;;;;;;8.92;66.99;100569.63;679428;29;1118;-78
2022/04/21 00:41:03;;;;;;;5.55;3.85;;;;;;;8.91;68.87;100571.34;675305;29;1339;-79
2022/04/21 00:41:24;;;;;;;5.82;3.70;;;;;;;8.90;67.66;100559.19;672319;29;1249;-79
2022/04/21 00:41:44;;;;;;;5.87;3.47;;;;;;;8.87;67.24;100569.63;674736;29;1364;-78
2022/04/21 00:42:05;;;;;;;5.70;3.33;;;;;;;8.86;67.17;100547.91;677327;29;1396;-78
2022/04/21 00:42:25;;;;;;;5.63;3.30;;;;;;;8.84;66.75;100547.00;677307;29;1462;-79
2022/04/21 00:42:46;;;;;;;5.20;3.50;;;;;;;8.84;67.31;100552.22;677449;29;1333;-79
2022/04/21 00:43:10;;;;;;;5.30;3.42;;;;;;;8.84;67.30;100538.34;676552;29;4306;-78
2022/04/21 00:43:30;;;;;;;5.20;3.40;;;;;;;8.83;66.64;100547.03;678692;29;1564;-78
2022/04/21 00:43:51;;;;;;;6.38;3.42;;;;;;;8.86;68.08;100557.44;679671;29;1646;-78
2022/04/21 00:44:14;;;;;;;7.10;3.63;;;;;;;8.77;66.93;100563.53;680051;29;1427;-79
2022/04/21 00:44:35;;;;;;;5.55;3.45;;;;;;;8.76;68.89;100546.13;677251;29;1290;-79
2022/04/21 00:44:56;;;;;;;5.50;3.50;;;;;;;8.79;68.49;100550.50;679777;29;1253;-79
2022/04/21 00:45:21;;;;;;;5.55;3.70;;;;;;;8.78;69.58;100544.41;679913;29;1062;-78
2022/04/21 00:45:42;;;;;;;5.75;3.65;;;;;;;8.80;68.45;100550.50;681274;29;1554;-78
2022/04/21 00:46:03;;;;;;;5.63;3.67;;;;;;;8.80;67.66;100557.44;681881;28;4364;-79
2022/04/21 00:46:24;;;;;;;5.63;3.70;;;;;;;8.76;68.09;100546.13;676309;29;1367;-79
2022/04/21 00:46:45;;;;;;;6.28;3.72;;;;;;;8.77;68.23;100568.75;678992;29;1316;-79
2022/04/21 00:47:07;;;;;;;5.85;3.60;;;;;;;8.75;68.57;100564.38;679014;29;1460;-79
2022/04/21 00:47:32;;;;;;;5.05;3.30;;;;;;;8.79;68.41;100548.78;683745;28;2254;-78
2022/04/21 00:47:55;;;;;;;5.93;3.38;;;;;;;8.75;67.88;100544.44;679796;29;1911;-78
2022/04/21 00:48:16;;;;;;;5.97;3.40;;;;;;;8.73;67.71;100553.97;679672;29;1254;-79
2022/04/21 00:48:36;;;;;;;5.35;3.80;;;;;;;8.75;67.66;100547.03;679601;29;1340;-78
2022/04/21 00:48:56;;;;;;;5.57;3.80;;;;;;;8.75;67.04;100547.03;678976;29;4431;-78
2022/04/21 00:49:19;;;;;;;5.80;3.78;;;;;;;8.74;68.50;100545.28;679619;29;1512;-79
2022/04/21 00:49:39;;;;;;;4.78;3.50;;;;;;;8.71;67.63;100547.91;677469;29;956;-78
2022/04/21 00:50:00;;;;;;;5.60;3.50;;;;;;;8.71;67.11;100541.78;676926;29;1298;-78
2022/04/21 00:50:39;;;;;;;5.85;3.63;;;;;;;8.69;67.34;100544.41;678128;29;1401;-79
2022/04/21 00:51:00;;;;;;;5.97;3.53;;;;;;;8.66;67.15;100541.81;681048;28;1200;-79
2022/04/21 00:51:24;;;;;;;6.07;3.60;;;;;;;8.65;67.47;100555.69;677309;29;1464;-79
2022/04/21 00:51:45;;;;;;;5.40;3.40;;;;;;;8.63;67.57;100547.88;679765;29;1431;-78
2022/04/21 00:52:07;;;;;;;5.85;3.50;;;;;;;8.60;68.21;100549.59;676437;29;4323;-78
2022/04/21 00:52:27;;;;;;;6.20;3.63;;;;;;;8.61;68.20;100557.44;676405;29;1441;-78
2022/04/21 00:52:49;;;;;;;5.53;3.53;;;;;;;8.59;67.73;100550.50;677243;29;1159;-79
2022/04/21 00:53:09;;;;;;;6.00;3.50;;;;;;;8.59;67.91;100542.66;679515;29;1202;-78
2022/04/21 00:53:30;;;;;;;5.40;3.40;;;;;;;8.59;68.14;100550.50;677478;29;1426;-79
2022/04/21 00:53:50;;;;;;;6.03;3.75;;;;;;;8.59;67.27;100545.28;678509;29;1400;-78
2022/04/21 00:54:11;;;;;;;5.87;3.70;;;;;;;8.59;68.00;100547.88;680457;29;1816;-79
2022/04/21 00:54:33;;;;;;;5.40;3.50;;;;;;;8.59;67.82;100548.75;682378;29;1249;-78
2022/04/21 00:54:53;;;;;;;6.00;3.50;;;;;;;8.59;67.64;100547.88;684433;28;1554;-78
2022/04/21 00:55:14;;;;;;;5.50;3.70;;;;;;;8.58;67.06;100551.34;680367;28;4323;-79
2022/04/21 00:55:37;;;;;;;5.90;3.77;;;;;;;8.61;67.02;100548.75;680412;29;1194;-78
2022/04/21 00:55:58;;;;;;;5.50;3.65;;;;;;;8.64;68.30;100551.34;679297;29;1562;-78
2022/04/21 00:56:19;;;;;;;5.65;3.85;;;;;;;8.65;67.72;100538.34;679443;29;983;-79
2022/04/21 00:56:42;;;;;;;5.25;3.70;;;;;;;8.67;67.01;100538.34;676593;29;1336;-78
2022/04/21 00:57:04;;;;;;;5.30;3.58;;;;;;;8.65;67.37;100540.06;677782;29;1331;-79
2022/04/21 00:57:25;;;;;;;5.53;3.70;;;;;;;8.68;68.30;100553.97;679835;29;1042;-78
2022/04/21 00:57:47;;;;;;;5.18;3.60;;;;;;;8.68;68.77;100550.47;681313;28;1360;-79
2022/04/21 00:58:08;;;;;;;5.55;3.72;;;;;;;8.70;67.71;100540.94;678994;28;5078;-79
2022/04/21 00:58:29;;;;;;;5.95;3.60;;;;;;;8.75;67.56;100544.44;678495;29;1179;-78
2022/04/21 00:58:50;;;;;;;5.32;3.58;;;;;;;8.75;67.68;100549.63;679658;29;1261;-79
2022/04/21 00:59:11;;;;;;;5.20;3.45;;;;;;;8.72;67.28;100543.53;677379;29;1289;-78
2022/04/21 00:59:32;;;;;;;5.55;3.47;;;;;;;8.71;68.44;100553.09;679123;29;1595;-79
2022/04/21 00:59:53;;;;;;;5.90;3.40;;;;;;;8.74;68.07;100547.03;682103;28;1258;-78
2022/04/21 01:00:15;;;;;;;5.77;3.57;;;;;;;8.71;67.82;100540.09;685002;28;1485;-78
2022/04/21 01:00:36;;;;;;;6.40;3.40;;;;;;;8.71;67.95;100542.69;686102;28;1300;-78
2022/04/21 01:00:57;;;;;;;6.15;3.70;;;;;;;8.71;67.80;100539.19;681226;28;4327;-79
2022/04/21 01:02:46;;;;;;;5.55;3.88;;;;;;;8.59;69.37;100545.28;684782;28;1277;-78
2022/04/21 01:03:06;;;;;;;6.13;3.70;;;;;;;8.58;68.22;100535.72;683091;28;1030;-79
2022/04/21 01:03:27;;;;;;;6.47;3.77;;;;;;;8.63;68.54;100541.81;685495;28;1211;-79
2022/04/21 01:03:48;;;;;;;6.45;3.45;;;;;;;8.60;67.93;100539.16;685685;28;1265;-79
2022/04/21 01:04:09;;;;;;;5.63;3.28;;;;;;;8.61;67.98;100540.91;681799;28;4316;-78
2022/04/21 01:04:31;;;;;;;5.70;3.67;;;;;;;8.61;67.34;100534.00;681640;29;1271;-78
2022/04/21 01:04:52;;;;;;;6.13;3.70;;;;;;;8.59;68.33;100540.91;680390;29;1712;-79
2022/04/21 01:05:33;;;;;;;5.88;3.80;;;;;;;8.51;67.98;100535.72;680763;29;1174;-79
2022/04/21 01:05:54;;;;;;;5.65;3.70;;;;;;;8.50;67.99;100535.69;679418;29;1360;-78
2022/04/21 01:06:15;;;;;;;5.90;3.70;;;;;;;8.47;68.60;100543.50;679540;29;1136;-78
2022/04/21 01:06:35;;;;;;;5.90;3.73;;;;;;;8.46;68.40;100539.16;680342;29;1194;-78
2022/04/21 01:06:57;;;;;;;6.10;3.67;;;;;;;8.45;69.55;100550.47;677660;29;4315;-80
2022/04/21 01:07:20;;;;;;;5.30;3.60;;;;;;;8.41;69.60;100546.94;681500;29;1391;-79
2022/04/21 01:07:44;;;;;;;5.85;3.75;;;;;;;8.37;68.72;100536.50;677952;29;1919;-79
2022/04/21 01:08:08;;;;;;;6.57;4.03;;;;;;;8.29;69.72;100539.97;677419;29;1159;-78
2022/04/21 01:08:29;;;;;;;6.30;3.92;;;;;;;8.27;69.81;100540.84;675226;29;1274;-79
2022/04/21 01:08:49;;;;;;;6.07;3.60;;;;;;;8.28;70.03;100552.97;675605;29;1171;-78
2022/04/21 01:09:10;;;;;;;5.93;3.63;;;;;;;8.23;69.78;100559.91;678375;29;1159;-78
2022/04/21 01:09:33;;;;;;;6.15;3.70;;;;;;;8.22;70.09;100550.34;679321;29;1315;-78
2022/04/21 01:09:55;;;;;;;6.20;3.97;;;;;;;8.19;69.97;100567.69;677370;29;1629;-79
2022/04/21 01:10:16;;;;;;;5.20;3.40;;;;;;;8.17;69.54;100556.41;676702;29;4691;-78
2022/04/21 01:10:38;;;;;;;5.25;3.50;;;;;;;8.19;69.71;100554.69;677798;29;1043;-79
2022/04/21 01:11:06;;;;;;;4.60;3.22;;;;;;;8.17;69.39;100564.22;677466;29;1069;-79
2022/04/21 01:11:29;;;;;;;5.30;3.85;;;;;;;8.22;69.89;100539.94;677453;29;1662;-78
2022/04/21 01:11:50;;;;;;;5.88;3.80;;;;;;;8.22;69.86;100543.41;677913;29;978;-78
2022/04/21 01:12:13;;;;;;;6.70;3.90;;;;;;;8.22;70.16;100565.97;682500;28;1154;-78
2022/04/21 01:12:43;;;;;;;6.72;3.72;;;;;;;8.18;70.48;100570.31;679669;29;3777;-78
2022/04/21 01:13:07;;;;;;;9.77;3.97;;;;;;;8.16;69.97;100556.41;676909;29;4306;-78
2022/04/21 01:13:28;;;;;;;9.55;4.07;;;;;;;8.16;70.42;100533.84;676716;29;1310;-78
2022/04/21 01:13:52;;;;;;;6.03;3.90;;;;;;;8.16;70.84;100548.59;680186;29;1089;-79
2022/04/21 01:14:14;;;;;;;5.65;3.70;;;;;;;8.12;72.35;100539.03;681592;29;1501;-79
2022/04/21 01:14:38;;;;;;;5.72;3.65;;;;;;;8.10;71.29;100539.03;682429;28;1246;-78
2022/04/21 01:14:59;;;;;;;6.43;3.78;;;;;;;8.13;70.90;100548.59;682226;28;1631;-79
2022/04/21 01:15:20;;;;;;;5.80;3.90;;;;;;;8.11;70.94;100538.19;682282;28;1235;-78
2022/04/21 01:15:41;;;;;;;5.22;3.53;;;;;;;8.10;71.20;100536.44;680588;28;1746;-78
2022/04/21 01:16:01;;;;;;;5.45;3.70;;;;;;;8.06;71.16;100546.81;675150;29;4326;-79
2022/04/21 01:16:22;;;;;;;5.70;3.92;;;;;;;8.04;71.16;100544.22;674658;29;1347;-79
2022/04/21 01:16:43;;;;;;;5.60;3.70;;;;;;;8.02;71.12;100538.16;678493;29;1425;-79
2022/04/21 01:17:05;;;;;;;5.53;3.70;;;;;;;8.02;70.86;100544.22;676926;29;1004;-79
2022/04/21 01:17:33;;;;;;;6.68;3.60;;;;;;;8.01;71.34;100545.06;681745;28;1352;-78
2022/04/21 01:17:55;;;;;;;6.35;3.92;;;;;;;7.98;71.94;100537.25;681998;28;1547;-78
2022/04/21 01:18:26;;;;;;;5.82;3.78;;;;;;;7.98;71.76;100533.78;682834;28;1572;-78
2022/04/21 01:18:47;;;;;;;6.15;3.72;;;;;;;7.97;71.73;100542.47;682657;28;1438;-79
2022/04/21 01:19:10;;;;;;;5.97;3.70;;;;;;;7.94;71.53;100537.25;681366;28;4298;-78
2022/04/21 01:19:31;;;;;;;7.85;3.90;;;;;;;7.92;71.59;100555.47;682294;28;1161;-79
2022/04/21 01:19:51;;;;;;;7.20;4.00;;;;;;;7.93;72.02;100536.34;684501;28;1381;-79
2022/04/21 01:20:18;;;;;;;6.23;3.73;;;;;;;7.90;71.67;100559.78;685242;28;958;-79
2022/04/21 01:20:39;;;;;;;5.65;3.60;;;;;;;7.91;70.91;100545.06;685481;28;1169;-79
2022/04/21 01:20:59;;;;;;;6.63;3.80;;;;;;;7.88;71.86;100545.91;684035;28;1240;-78
2022/04/21 01:21:20;;;;;;;6.50;4.00;;;;;;;7.86;71.89;100550.22;682454;29;1260;-78
2022/04/21 01:21:40;;;;;;;5.90;4.03;;;;;;;7.85;71.54;100535.47;678340;29;1075;-79
2022/04/21 01:22:01;;;;;;;7.13;4.00;;;;;;;7.86;72.16;100533.75;669168;29;4331;-78
2022/04/21 01:22:22;;;;;;;6.68;4.20;;;;;;;7.86;72.30;100559.75;681382;28;1409;-79
2022/04/21 01:22:42;;;;;;;6.30;4.23;;;;;;;7.87;72.25;100528.53;682185;28;1760;-79
2022/04/21 01:23:03;;;;;;;6.13;3.92;;;;;;;7.88;71.71;100526.78;679618;29;1235;-79
2022/04/21 01:23:23;;;;;;;6.57;3.90;;;;;;;7.93;72.59;100530.28;680062;28;1294;-78
2022/04/21 01:23:44;;;;;;;5.43;3.90;;;;;;;7.93;73.88;100530.28;676443;29;1722;-78
2022/04/21 01:24:06;;;;;;;5.55;3.85;;;;;;;7.90;73.43;100527.69;679790;29;1091;-79
2022/04/21 01:24:29;;;;;;;5.35;3.47;;;;;;;7.91;73.08;100553.72;680901;29;1058;-78
2022/04/21 01:24:52;;;;;;;5.68;3.75;;;;;;;7.94;73.27;100532.03;681249;28;1239;-78
2022/04/21 01:25:13;;;;;;;5.47;3.75;;;;;;;7.94;73.29;100561.53;676296;29;4382;-78
2022/04/21 01:25:39;;;;;;;5.68;3.70;;;;;;;8.00;72.51;100530.34;679511;29;1322;-78
2022/04/21 01:26:03;;;;;;;6.05;3.60;;;;;;;8.02;72.90;100535.53;675470;29;1324;-79
2022/04/21 01:26:34;;;;;;;6.03;3.97;;;;;;;7.97;72.14;100552.88;683022;28;1356;-78
2022/04/21 01:26:57;;;;;;;5.82;3.72;;;;;;;7.90;73.31;100532.88;680653;29;1328;-78
2022/04/21 01:27:18;;;;;;;5.68;3.97;;;;;;;7.86;74.00;100521.59;678672;29;1369;-78
2022/04/21 01:27:40;;;;;;;5.93;4.10;;;;;;;7.83;74.21;100553.66;681867;28;1454;-78
2022/04/21 01:28:01;;;;;;;5.40;3.90;;;;;;;7.86;73.38;100525.94;681471;28;4362;-78
2022/04/21 01:28:22;;;;;;;5.40;3.63;;;;;;;7.85;74.20;100540.69;681683;28;1268;-79
2022/04/21 01:28:45;;;;;;;5.57;3.80;;;;;;;7.90;74.04;100525.09;679773;29;1194;-78
2022/04/21 01:29:07;;;;;;;5.50;3.60;;;;;;;7.90;73.96;100541.56;679505;29;1230;-78
2022/04/21 01:29:28;;;;;;;5.03;3.70;;;;;;;7.90;73.95;100525.09;680140;29;1124;-78
2022/04/21 01:29:50;;;;;;;6.63;3.70;;;;;;;7.91;74.37;100519.03;678335;29;1793;-78
2022/04/21 01:30:12;;;;;;;6.03;3.75;;;;;;;7.97;72.77;100524.22;679560;29;1234;-78
2022/04/21 01:30:32;;;;;;;5.43;3.58;;;;;;;7.98;73.08;100524.25;678176;29;1018;-78
2022/04/21 01:30:56;;;;;;;6.23;3.80;;;;;;;7.92;74.33;100534.63;680976;28;1106;-78
2022/04/21 01:31:23;;;;;;;5.47;3.78;;;;;;;7.90;74.67;100525.09;680125;29;6480;-78
2022/04/21 01:31:44;;;;;;;5.43;3.80;;;;;;;7.89;74.33;100538.94;679793;28;1349;-78
2022/04/21 01:32:05;;;;;;;5.50;3.70;;;;;;;7.88;74.05;100542.41;676751;29;1728;-78
2022/04/21 01:32:27;;;;;;;7.45;3.95;;;;;;;7.89;72.94;100549.38;678261;29;1091;-78
2022/04/21 01:32:49;;;;;;;6.07;3.95;;;;;;;7.85;75.17;100556.31;678479;29;1402;-79
2022/04/21 01:33:10;;;;;;;5.90;3.70;;;;;;;7.78;74.10;100526.78;680551;29;1185;-78
2022/04/21 01:33:30;;;;;;;5.55;3.75;;;;;;;7.75;74.76;100564.91;679679;29;1475;-78
2022/04/21 01:33:52;;;;;;;5.47;3.90;;;;;;;7.73;75.02;100538.88;679376;29;1403;-79
2022/04/21 01:34:12;;;;;;;5.45;3.90;;;;;;;7.73;74.66;100523.28;681836;28;4518;-78
2022/04/21 01:34:37;;;;;;;6.05;3.80;;;;;;;7.72;74.48;100542.34;679364;29;1281;-79
2022/04/21 01:34:58;;;;;;;6.00;3.83;;;;;;;7.72;74.77;100544.09;675935;29;988;-78
2022/04/21 01:35:18;;;;;;;5.65;3.67;;;;;;;7.72;74.23;100544.94;678772;29;1276;-79
2022/04/21 01:35:42;;;;;;;5.13;3.67;;;;;;;7.75;74.63;100521.53;678886;29;1158;-78
2022/04/21 01:36:03;;;;;;;5.68;4.10;;;;;;;7.76;76.27;100528.47;678095;29;1086;-79
2022/04/21 01:36:26;;;;;;;6.43;4.07;;;;;;;7.76;75.20;100514.63;677732;29;1020;-78
2022/04/21 01:41:26;;;;;;;5.68;3.70;;;;;;;7.70;74.60;100511.97;680626;29;1050;-79
2022/04/21 01:41:46;;;;;;;6.33;3.70;;;;;;;7.67;75.97;100513.72;677620;29;1456;-78
2022/04/21 01:42:12;;;;;;;6.90;3.90;;;;;;;7.66;75.93;100503.28;679737;29;995;-79
2022/04/21 01:42:33;;;;;;;5.55;3.55;;;;;;;7.65;75.90;100509.34;678025;29;937;-79
2022/04/21 01:42:53;;;;;;;5.40;3.43;;;;;;;7.61;75.34;100508.47;678583;29;1580;-78
2022/04/21 01:43:14;;;;;;;4.80;3.38;;;;;;;7.61;77.01;100512.81;677606;29;4288;-78
2022/04/21 01:43:39;;;;;;;5.10;3.70;;;;;;;7.58;76.71;100499.78;682701;28;1587;-78
2022/04/21 01:44:00;;;;;;;5.63;3.75;;;;;;;7.55;75.49;100507.59;682318;29;1194;-78
2022/04/21 01:44:20;;;;;;;7.15;3.85;;;;;;;7.60;75.71;100503.25;679532;29;1489;-78
2022/04/21 01:44:41;;;;;;;6.40;3.77;;;;;;;7.60;75.78;100505.84;676760;29;1241;-78
2022/04/21 01:45:01;;;;;;;7.30;3.80;;;;;;;7.58;76.90;100505.00;677632;29;1441;-78
2022/04/21 01:45:22;;;;;;;5.70;3.77;;;;;;;7.58;75.22;100498.03;677475;29;1616;-79
2022/04/21 01:45:46;;;;;;;5.30;3.78;;;;;;;7.59;75.68;100505.00;676530;29;1182;-78
2022/04/21 01:46:06;;;;;;;6.22;3.80;;;;;;;7.63;75.39;100505.91;676145;29;4363;-79
2022/04/21 01:46:26;;;;;;;5.97;3.80;;;;;;;7.60;74.80;100501.53;679716;29;1276;-78
2022/04/21 01:46:48;;;;;;;6.10;3.80;;;;;;;7.62;75.25;100499.78;678894;29;1241;-79
2022/04/21 01:47:09;;;;;;;5.60;3.70;;;;;;;7.62;75.21;100510.22;679230;29;1027;-78
2022/04/21 01:47:30;;;;;;;5.53;3.75;;;;;;;7.70;73.92;100501.56;678240;29;741;-78
2022/04/21 01:47:50;;;;;;;5.22;3.60;;;;;;;7.73;73.18;100510.25;677693;29;2010;-78
2022/04/21 01:48:13;;;;;;;5.93;3.70;;;;;;;7.72;73.62;100498.09;680326;29;1676;-80
2022/04/21 01:48:33;;;;;;;6.25;4.05;;;;;;;7.70;73.99;100505.06;681244;28;1258;-78
2022/04/21 01:48:54;;;;;;;6.25;4.20;;;;;;;7.67;74.02;100500.69;679654;29;1844;-79
2022/04/21 01:49:14;;;;;;;6.30;4.03;;;;;;;7.64;75.99;100508.50;679217;29;4280;-79
2022/04/21 01:49:35;;;;;;;5.80;3.95;;;;;;;7.63;75.09;100500.69;678991;29;1243;-78
2022/04/21 01:49:55;;;;;;;5.20;3.70;;;;;;;7.62;74.89;100497.19;678775;29;1351;-78
2022/04/21 01:50:15;;;;;;;5.28;3.78;;;;;;;7.61;74.19;100499.78;682428;28;2024;-79
2022/04/21 01:50:36;;;;;;;5.73;3.80;;;;;;;7.60;74.37;100500.66;680516;29;1313;-78
2022/04/21 01:50:56;;;;;;;5.20;3.83;;;;;;;7.57;74.07;100501.50;681649;28;1157;-78
2022/04/21 01:51:17;;;;;;;5.47;4.00;;;;;;;7.55;74.02;100495.44;683353;28;1113;-79
2022/04/21 01:51:38;;;;;;;6.05;4.00;;;;;;;7.56;74.33;100498.91;680199;29;1276;-79
2022/04/21 01:51:58;;;;;;;5.72;4.00;;;;;;;7.58;73.47;100498.03;678685;29;4376;-79
2022/04/21 01:52:19;;;;;;;7.00;4.00;;;;;;;7.57;74.23;100498.03;681831;28;1695;-79
2022/04/21 01:52:39;;;;;;;7.53;3.80;;;;;;;7.57;74.53;100500.63;681879;29;1363;-77